Time;durP1;ratioP1;P1;durP2;ratioP2;P2;SDS_P1;SDS_P2;PMS_P1;PMS_P2;Temp;Humidity;BMP_temperature;BMP_pressure;BME280_temperature;BME280_humidity;BME280_pressure;Samples;Min_cycle;Max_cycle;Signal;HPM_P1;HPM_P2
2023/06/10 00:02:22;;;;;;;6.55;5.07;;;23.30;43.10;;;;;;5037834;28;20370;-63
2023/06/10 00:04:49;;;;;;;7.28;5.45;;;23.30;43.20;;;;;;5040692;28;20773;-63
2023/06/10 00:07:17;;;;;;;8.43;5.78;;;23.30;43.20;;;;;;5040065;28;20057;-63
2023/06/10 00:09:44;;;;;;;7.05;5.35;;;23.20;43.10;;;;;;5039586;28;20059;-63
2023/06/10 00:12:11;;;;;;;6.95;5.68;;;23.20;43.20;;;;;;5039637;28;20757;-65
2023/06/10 00:14:41;;;;;;;8.85;5.32;;;23.20;43.30;;;;;;5041764;28;20055;-64
2023/06/10 00:17:10;;;;;;;5.43;4.85;;;23.20;43.30;;;;;;5037537;28;20061;-64
2023/06/10 00:19:41;;;;;;;7.38;5.05;;;23.10;43.30;;;;;;5039557;28;20057;-64
2023/06/10 00:22:09;;;;;;;6.18;5.38;;;23.10;43.30;;;;;;5039417;28;20063;-64
2023/06/10 00:24:36;;;;;;;8.52;5.40;;;23.10;43.40;;;;;;5037864;28;20049;-63
2023/06/10 00:27:03;;;;;;;7.50;5.35;;;23.10;43.40;;;;;;5040252;28;20059;-65
2023/06/10 00:29:31;;;;;;;7.28;5.30;;;23.00;43.50;;;;;;5041397;28;20064;-63
2023/06/10 00:31:59;;;;;;;9.43;6.18;;;23.00;43.50;;;;;;5039988;28;20057;-65
2023/06/10 00:34:26;;;;;;;8.50;5.95;;;23.00;43.60;;;;;;5039068;28;20524;-64
2023/06/10 00:36:53;;;;;;;11.13;5.57;;;23.00;43.60;;;;;;5038632;28;20397;-64
2023/06/10 00:39:21;;;;;;;8.27;6.50;;;23.00;43.80;;;;;;5037640;28;20095;-62
2023/06/10 00:41:48;;;;;;;7.30;5.57;;;22.90;44.00;;;;;;5041352;28;20817;-62
2023/06/10 00:44:15;;;;;;;10.95;5.70;;;22.90;44.00;;;;;;5040430;28;20057;-64
2023/06/10 00:46:42;;;;;;;8.65;5.93;;;22.90;44.00;;;;;;5036859;28;20045;-62
2023/06/10 00:49:12;;;;;;;8.52;5.70;;;22.90;44.20;;;;;;5036593;28;20049;-63
2023/06/10 00:51:40;;;;;;;7.93;5.78;;;22.80;44.10;;;;;;5038494;28;20057;-63
2023/06/10 00:54:08;;;;;;;6.40;5.13;;;22.80;44.10;;;;;;5036174;28;20052;-62
2023/06/10 00:56:36;;;;;;;7.70;5.93;;;22.80;44.10;;;;;;5041597;28;20049;-63
2023/06/10 00:59:04;;;;;;;7.60;5.45;;;22.80;44.10;;;;;;5040273;28;20049;-64
2023/06/10 01:01:32;;;;;;;7.07;5.63;;;22.80;44.10;;;;;;5039841;28;20072;-64
2023/06/10 01:03:59;;;;;;;8.27;6.10;;;22.80;44.10;;;;;;5039544;23;20057;-56
2023/06/10 01:06:37;;;;;;;11.82;6.30;;;22.70;44.10;;;;;;5001407;28;20046;-57
2023/06/10 01:09:22;;;;;;;9.27;6.18;;;22.70;44.20;;;;;;5000214;28;20061;-56
2023/06/10 01:11:57;;;;;;;6.95;5.30;;;22.60;44.10;;;;;;5002913;28;20497;-57
2023/06/10 01:14:25;;;;;;;6.40;5.30;;;22.60;44.20;;;;;;5002263;28;20064;-57
2023/06/10 01:16:53;;;;;;;7.65;5.53;;;22.60;44.30;;;;;;5001958;28;20058;-57
2023/06/10 01:19:23;;;;;;;8.60;5.78;;;22.60;44.40;;;;;;5002067;28;20362;-57
2023/06/10 01:21:54;;;;;;;7.82;5.43;;;22.60;44.50;;;;;;4998246;28;20425;-55
2023/06/10 01:24:22;;;;;;;6.88;5.40;;;22.50;44.50;;;;;;4993637;28;20065;-57
2023/06/10 01:26:52;;;;;;;7.95;5.40;;;22.50;44.60;;;;;;5002048;28;20056;-57
2023/06/10 01:29:26;;;;;;;9.90;5.75;;;22.50;44.70;;;;;;5001979;28;20054;-54
2023/06/10 01:32:01;;;;;;;6.90;5.57;;;22.50;44.70;;;;;;4999352;28;20057;-57
2023/06/10 01:34:30;;;;;;;10.70;6.25;;;22.50;44.90;;;;;;5001316;28;20054;-57
2023/06/10 01:36:59;;;;;;;9.15;5.70;;;22.40;44.80;;;;;;5000567;28;20058;-57
2023/06/10 01:39:28;;;;;;;6.53;5.43;;;22.50;44.90;;;;;;4999157;28;20054;-57
2023/06/10 01:41:56;;;;;;;11.23;6.28;;;22.40;44.80;;;;;;5002221;28;20068;-56
2023/06/10 01:44:24;;;;;;;7.75;5.22;;;22.40;44.80;;;;;;4999856;28;20520;-57
2023/06/10 01:46:51;;;;;;;9.93;6.40;;;22.40;44.80;;;;;;4999438;28;20085;-57
2023/06/10 01:49:18;;;;;;;9.52;6.38;;;22.40;44.90;;;;;;5001516;28;20837;-57
2023/06/10 01:51:46;;;;;;;7.70;5.40;;;22.40;45.00;;;;;;5000921;28;20064;-57
2023/06/10 01:54:14;;;;;;;7.32;5.65;;;22.30;44.90;;;;;;4999119;28;20062;-57
2023/06/10 01:56:41;;;;;;;7.82;5.93;;;22.30;45.00;;;;;;5002469;28;20056;-57
2023/06/10 01:59:09;;;;;;;7.15;5.55;;;22.30;45.00;;;;;;5001117;28;20080;-57
2023/06/10 02:01:36;;;;;;;5.88;5.07;;;22.20;44.90;;;;;;4998667;28;20429;-57
2023/06/10 02:04:03;;;;;;;9.40;6.28;;;22.20;45.00;;;;;;5000704;28;20050;-56
2023/06/10 02:06:31;;;;;;;7.75;5.63;;;22.20;45.10;;;;;;4999845;28;20061;-57
2023/06/10 02:08:58;;;;;;;9.88;6.25;;;22.20;45.10;;;;;;4998150;28;20053;-56
2023/06/10 02:11:27;;;;;;;7.95;5.28;;;22.10;45.10;;;;;;5000733;28;20064;-57
2023/06/10 02:13:54;;;;;;;7.07;5.68;;;22.10;45.10;;;;;;5004537;28;20066;-57
2023/06/10 02:16:22;;;;;;;6.78;5.20;;;22.10;45.10;;;;;;5002512;28;20046;-54
2023/06/10 02:18:49;;;;;;;8.43;5.97;;;22.10;45.10;;;;;;5003922;28;20069;-57
2023/06/10 02:21:16;;;;;;;10.45;5.85;;;22.00;45.10;;;;;;5004821;28;20506;-52
2023/06/10 02:23:43;;;;;;;7.00;5.65;;;22.00;45.20;;;;;;5002510;28;20069;-50
2023/06/10 02:26:11;;;;;;;6.13;5.50;;;22.00;45.20;;;;;;5004451;28;20057;-48
2023/06/10 02:28:43;;;;;;;6.78;5.35;;;21.90;45.30;;;;;;5004127;28;20054;-54
2023/06/10 02:31:10;;;;;;;7.10;5.63;;;21.90;45.30;;;;;;5001242;28;20046;-50
2023/06/10 02:33:39;;;;;;;9.73;6.43;;;21.90;45.30;;;;;;5004139;28;20065;-52
2023/06/10 02:36:07;;;;;;;8.65;5.95;;;21.90;45.50;;;;;;5004275;28;20391;-53
2023/06/10 02:38:34;;;;;;;7.43;5.53;;;21.90;45.40;;;;;;5001648;28;20050;-51
2023/06/10 02:41:01;;;;;;;7.68;5.82;;;21.80;45.40;;;;;;5001350;28;20528;-55
2023/06/10 02:43:29;;;;;;;8.02;6.07;;;21.80;45.40;;;;;;5003917;28;20053;-56
2023/06/10 02:45:58;;;;;;;7.93;5.53;;;21.80;45.40;;;;;;5002347;28;20050;-52
2023/06/10 02:48:25;;;;;;;7.88;6.20;;;21.80;45.50;;;;;;5004151;28;20429;-49
2023/06/10 02:50:52;;;;;;;7.63;5.50;;;21.80;45.50;;;;;;5002977;28;20054;-52
2023/06/10 02:53:20;;;;;;;7.30;5.45;;;21.80;45.50;;;;;;5001097;28;20425;-51
2023/06/10 02:55:47;;;;;;;8.77;6.00;;;21.70;45.40;;;;;;5003941;28;20057;-56
2023/06/10 02:58:15;;;;;;;10.13;6.00;;;21.70;45.40;;;;;;5004051;28;20042;-55
2023/06/10 03:00:43;;;;;;;7.40;5.35;;;21.70;45.40;;;;;;5004167;28;20058;-51
2023/06/10 03:03:12;;;;;;;8.18;6.18;;;21.70;45.40;;;;;;5004653;28;20066;-52
2023/06/10 03:05:40;;;;;;;6.82;5.30;;;21.70;45.50;;;;;;5002538;28;20065;-53
2023/06/10 03:08:07;;;;;;;7.80;5.70;;;21.60;45.50;;;;;;5002087;28;20046;-49
2023/06/10 03:10:34;;;;;;;8.38;6.18;;;21.60;45.70;;;;;;5003550;28;20501;-50
2023/06/10 03:13:01;;;;;;;7.47;6.10;;;21.60;45.70;;;;;;5004088;28;20052;-50
2023/06/10 03:15:33;;;;;;;7.70;6.03;;;21.60;45.70;;;;;;5004216;28;20490;-51
2023/06/10 03:18:00;;;;;;;7.90;5.50;;;21.60;45.70;;;;;;5004274;28;20058;-47
2023/06/10 03:20:29;;;;;;;7.97;5.88;;;21.60;45.70;;;;;;5003550;28;20053;-55
2023/06/10 03:22:57;;;;;;;7.80;5.90;;;21.50;45.60;;;;;;5001557;28;20053;-50
2023/06/10 03:25:26;;;;;;;5.93;5.28;;;21.60;45.70;;;;;;5003397;28;20146;-49
2023/06/10 03:27:53;;;;;;;6.97;5.13;;;21.50;45.60;;;;;;5003718;28;20109;-51
2023/06/10 03:30:20;;;;;;;6.93;5.40;;;21.50;45.60;;;;;;5004276;28;20493;-49
2023/06/10 03:32:48;;;;;;;6.07;4.90;;;21.50;45.70;;;;;;5002969;28;20060;-50
2023/06/10 03:35:15;;;;;;;5.88;5.15;;;21.40;45.70;;;;;;5003171;28;20054;-47
2023/06/10 03:37:44;;;;;;;8.70;6.03;;;21.40;45.80;;;;;;5001827;28;20417;-52
2023/06/10 03:40:11;;;;;;;8.05;5.65;;;21.40;45.90;;;;;;4998144;28;20500;-56
2023/06/10 03:42:39;;;;;;;8.40;6.38;;;21.40;45.90;;;;;;4999633;28;20054;-56
2023/06/10 03:45:07;;;;;;;7.05;5.47;;;21.40;45.90;;;;;;4996769;28;20077;-57
2023/06/10 03:47:35;;;;;;;15.93;6.03;;;21.40;46.00;;;;;;5002981;28;20501;-57
2023/06/10 03:50:03;;;;;;;7.65;5.93;;;21.40;46.00;;;;;;4995297;28;20046;-56
2023/06/10 03:52:30;;;;;;;9.60;5.65;;;21.30;46.00;;;;;;4998273;28;20061;-56
2023/06/10 03:54:59;;;;;;;10.63;6.50;;;21.30;46.10;;;;;;5000511;28;20383;-56
2023/06/10 03:57:26;;;;;;;8.25;5.93;;;21.40;46.30;;;;;;5003294;28;20054;-57
2023/06/10 03:59:53;;;;;;;9.57;6.22;;;21.30;46.30;;;;;;5002910;28;20057;-56
2023/06/10 04:02:21;;;;;;;9.52;6.38;;;21.30;46.40;;;;;;5002918;28;20058;-56
2023/06/10 04:04:48;;;;;;;9.65;5.88;;;21.30;46.50;;;;;;4999254;28;20061;-56
2023/06/10 04:07:15;;;;;;;8.55;6.25;;;21.30;46.60;;;;;;5001068;28;20398;-56
2023/06/10 04:09:42;;;;;;;8.60;6.15;;;21.30;46.60;;;;;;5000164;28;20057;-55
2023/06/10 04:12:11;;;;;;;8.68;6.00;;;21.30;46.70;;;;;;5002367;28;20413;-55
2023/06/10 04:14:38;;;;;;;8.18;6.20;;;21.30;46.80;;;;;;5002705;28;20058;-56
2023/06/10 04:17:07;;;;;;;7.05;5.88;;;21.20;46.80;;;;;;4999800;28;20425;-56
2023/06/10 04:19:34;;;;;;;7.55;5.75;;;21.20;46.80;;;;;;5002320;28;20505;-56
2023/06/10 04:22:02;;;;;;;8.35;5.68;;;21.20;46.80;;;;;;5001128;28;20050;-55
2023/06/10 04:24:29;;;;;;;7.07;5.25;;;21.20;46.90;;;;;;5002139;28;20062;-57
2023/06/10 04:26:57;;;;;;;7.15;6.05;;;21.20;47.10;;;;;;5002044;28;20064;-56
2023/06/10 04:29:25;;;;;;;6.32;5.43;;;21.20;47.20;;;;;;5000306;28;20638;-57
2023/06/10 04:31:52;;;;;;;7.97;5.53;;;21.20;47.20;;;;;;5001309;28;20501;-56
2023/06/10 04:34:20;;;;;;;11.23;6.45;;;21.20;47.30;;;;;;4999706;28;20148;-57
2023/06/10 04:36:47;;;;;;;7.07;5.85;;;21.20;47.40;;;;;;4998907;28;20504;-55
2023/06/10 04:39:16;;;;;;;10.13;6.15;;;21.20;47.40;;;;;;4993238;28;20060;-56
2023/06/10 04:41:44;;;;;;;7.47;6.10;;;21.20;47.40;;;;;;4995226;28;20064;-56
2023/06/10 04:44:11;;;;;;;7.10;5.55;;;21.20;47.40;;;;;;5000954;28;20126;-55
2023/06/10 04:46:40;;;;;;;7.82;5.97;;;21.20;47.40;;;;;;4995256;28;20073;-56
2023/06/10 04:49:07;;;;;;;6.82;5.40;;;21.20;47.40;;;;;;5001545;28;20057;-55
2023/06/10 04:51:35;;;;;;;7.10;5.63;;;21.20;47.40;;;;;;4998285;28;20076;-55
2023/06/10 04:54:03;;;;;;;8.95;5.90;;;21.20;47.50;;;;;;5000308;28;20057;-56
2023/06/10 04:56:31;;;;;;;9.07;5.97;;;21.20;47.50;;;;;;4998651;28;20050;-57
2023/06/10 04:58:58;;;;;;;9.55;5.80;;;21.20;47.60;;;;;;5001336;28;20046;-55
2023/06/10 05:01:26;;;;;;;9.10;6.22;;;21.20;47.50;;;;;;5001189;28;20417;-57
2023/06/10 05:03:54;;;;;;;8.13;5.80;;;21.20;47.50;;;;;;5000119;28;20498;-57
2023/06/10 05:06:21;;;;;;;7.82;5.97;;;21.20;47.60;;;;;;4999353;28;20785;-57
2023/06/10 05:08:49;;;;;;;9.05;6.28;;;21.20;47.70;;;;;;5000233;28;20049;-56
2023/06/10 05:11:16;;;;;;;6.70;5.72;;;21.20;47.80;;;;;;4998965;28;20045;-57
2023/06/10 05:13:44;;;;;;;7.30;5.45;;;21.30;47.90;;;;;;4998454;28;20417;-56
2023/06/10 05:16:11;;;;;;;7.78;5.68;;;21.30;48.00;;;;;;5005325;28;20049;-56
2023/06/10 05:18:38;;;;;;;11.07;6.32;;;21.30;48.10;;;;;;5002063;28;20528;-57
2023/06/10 05:21:07;;;;;;;18.35;12.30;;;21.30;48.10;;;;;;5000861;28;20062;-54
2023/06/10 05:23:34;;;;;;;14.27;9.82;;;21.30;48.20;;;;;;4999640;28;20054;-57
2023/06/10 05:26:02;;;;;;;11.35;9.05;;;21.30;48.20;;;;;;4997391;28;20405;-57
2023/06/10 05:28:29;;;;;;;13.45;8.27;;;21.40;48.30;;;;;;4999033;28;20428;-57
2023/06/10 05:30:56;;;;;;;10.40;7.13;;;21.40;48.30;;;;;;4994693;28;20054;-57
2023/06/10 05:33:23;;;;;;;9.70;6.80;;;21.40;48.40;;;;;;4999045;28;20057;-57
2023/06/10 05:35:51;;;;;;;11.85;6.93;;;21.40;48.40;;;;;;4996352;28;20498;-58
2023/06/10 05:38:19;;;;;;;10.18;5.72;;;21.40;48.60;;;;;;4994837;28;20409;-58
2023/06/10 05:40:47;;;;;;;7.35;5.93;;;21.50;48.60;;;;;;5001668;28;20061;-57
2023/06/10 05:43:16;;;;;;;9.60;6.50;;;21.50;48.60;;;;;;4999845;28;20054;-58
2023/06/10 05:45:43;;;;;;;9.88;5.80;;;21.50;48.80;;;;;;5000437;28;20068;-58
2023/06/10 05:48:11;;;;;;;8.00;6.18;;;21.50;48.60;;;;;;5002579;28;20485;-58
2023/06/10 05:50:39;;;;;;;8.15;5.55;;;21.60;48.60;;;;;;5003374;28;20072;-57
2023/06/10 05:53:14;;;;;;;8.18;6.00;;;21.60;48.60;;;;;;5001513;28;20056;-58
2023/06/10 05:55:43;;;;;;;10.75;6.90;;;21.60;48.40;;;;;;5004037;28;20506;-58
2023/06/10 05:58:12;;;;;;;17.67;11.88;;;21.60;48.40;;;;;;5004663;28;20592;-58
2023/06/10 06:00:39;;;;;;;11.48;8.63;;;21.60;48.20;;;;;;5005629;28;20049;-58
2023/06/10 06:03:08;;;;;;;11.43;8.75;;;21.70;48.20;;;;;;4997613;28;20422;-59
2023/06/10 06:05:37;;;;;;;12.02;7.18;;;21.70;48.40;;;;;;5004661;28;20060;-58
2023/06/10 06:08:04;;;;;;;9.20;6.88;;;21.80;48.50;;;;;;5001920;28;20077;-58
2023/06/10 06:10:31;;;;;;;11.07;6.28;;;21.80;48.60;;;;;;5000924;28;20402;-58
2023/06/10 06:13:01;;;;;;;6.63;5.38;;;21.90;48.70;;;;;;5005369;28;20512;-58
2023/06/10 06:15:28;;;;;;;9.18;5.93;;;21.90;48.80;;;;;;5004187;28;20425;-58
2023/06/10 06:17:56;;;;;;;14.45;6.35;;;21.90;48.70;;;;;;5002859;28;20054;-58
2023/06/10 06:20:24;;;;;;;7.88;5.13;;;22.00;48.40;;;;;;4999318;28;20050;-56
2023/06/10 06:22:51;;;;;;;12.65;5.68;;;22.00;48.20;;;;;;5002114;28;20068;-58
2023/06/10 06:25:19;;;;;;;8.20;5.38;;;22.00;47.70;;;;;;5002982;28;20054;-58
2023/06/10 06:27:46;;;;;;;6.55;5.43;;;22.10;47.90;;;;;;5005376;28;20058;-58
2023/06/10 06:30:15;;;;;;;8.63;5.25;;;22.20;48.00;;;;;;5003383;28;20050;-57
2023/06/10 06:32:42;;;;;;;7.13;5.57;;;22.20;48.30;;;;;;5000264;28;20415;-58
2023/06/10 06:35:09;;;;;;;6.57;5.10;;;22.30;48.30;;;;;;5000644;28;20066;-56
2023/06/10 06:37:37;;;;;;;8.95;5.43;;;22.30;48.30;;;;;;5001950;28;20069;-57
2023/06/10 06:40:05;;;;;;;8.35;6.22;;;22.30;48.30;;;;;;5004753;28;20053;-57
2023/06/10 06:42:33;;;;;;;9.90;5.38;;;22.40;48.20;;;;;;5003693;28;20050;-58
2023/06/10 06:45:00;;;;;;;7.18;5.40;;;22.40;48.20;;;;;;5003138;28;20050;-57
2023/06/10 06:47:28;;;;;;;6.05;5.43;;;22.50;48.30;;;;;;5002907;28;20065;-57
2023/06/10 06:49:55;;;;;;;7.53;5.72;;;22.60;48.30;;;;;;5000780;28;20058;-57
2023/06/10 06:52:23;;;;;;;10.30;5.82;;;22.60;48.30;;;;;;4997275;28;20068;-56
2023/06/10 06:54:50;;;;;;;15.60;5.72;;;22.60;47.90;;;;;;5002304;28;20046;-57
2023/06/10 06:57:17;;;;;;;6.63;5.30;;;22.70;47.90;;;;;;5003527;28;20084;-58
2023/06/10 06:59:45;;;;;;;8.95;5.55;;;22.80;48.10;;;;;;5001399;28;20057;-57
2023/06/10 07:02:12;;;;;;;9.55;6.28;;;22.80;48.30;;;;;;4998455;28;20073;-56
2023/06/10 07:04:41;;;;;;;13.10;5.95;;;22.90;48.30;;;;;;4996843;28;20398;-56
2023/06/10 07:07:09;;;;;;;10.13;6.15;;;23.00;48.40;;;;;;5001942;28;20069;-57
2023/06/10 07:09:36;;;;;;;8.95;5.53;;;23.00;48.30;;;;;;5004555;28;20069;-57
2023/06/10 07:12:05;;;;;;;6.70;5.68;;;23.10;48.10;;;;;;5003769;28;20053;-56
2023/06/10 07:14:32;;;;;;;7.53;5.80;;;23.10;47.90;;;;;;5000188;28;20053;-55
2023/06/10 07:16:59;;;;;;;7.07;5.28;;;23.20;47.80;;;;;;5003413;28;20062;-55
2023/06/10 07:19:27;;;;;;;8.43;6.07;;;23.30;47.80;;;;;;5001906;28;20134;-56
2023/06/10 07:21:55;;;;;;;6.32;5.18;;;23.30;48.10;;;;;;5004366;28;20061;-54
2023/06/10 07:24:22;;;;;;;9.68;5.35;;;23.40;47.90;;;;;;5002978;28;20489;-52
2023/06/10 07:26:50;;;;;;;9.82;6.00;;;23.50;47.90;;;;;;5003534;28;20122;-55
2023/06/10 07:29:17;;;;;;;10.18;6.70;;;23.50;47.90;;;;;;5000953;28;20413;-56
2023/06/10 07:31:44;;;;;;;8.77;5.68;;;23.60;47.90;;;;;;5003434;28;20053;-53
2023/06/10 07:34:12;;;;;;;7.55;5.65;;;23.70;47.50;;;;;;5001953;28;20413;-53
2023/06/10 07:36:39;;;;;;;8.60;6.03;;;23.70;47.40;;;;;;4999657;28;20050;-52
2023/06/10 07:39:07;;;;;;;6.97;5.65;;;23.80;47.40;;;;;;5000267;28;20046;-55
2023/06/10 07:41:35;;;;;;;7.95;6.13;;;23.80;47.50;;;;;;4999334;28;20041;-56
2023/06/10 07:44:02;;;;;;;7.90;5.22;;;23.90;47.20;;;;;;5001653;28;20056;-55
2023/06/10 07:46:29;;;;;;;7.43;5.65;;;24.00;47.30;;;;;;5001881;28;20061;-55
2023/06/10 07:48:56;;;;;;;9.40;5.47;;;24.00;47.10;;;;;;5001718;28;20045;-56
2023/06/10 07:51:24;;;;;;;9.38;6.80;;;24.10;47.00;;;;;;5002782;28;20062;-56
2023/06/10 07:53:51;;;;;;;9.68;5.97;;;24.10;46.70;;;;;;4999223;28;20053;-56
2023/06/10 07:56:21;;;;;;;13.02;8.18;;;24.20;46.70;;;;;;5002785;28;20395;-54
2023/06/10 07:58:48;;;;;;;10.30;6.90;;;24.20;46.70;;;;;;5002415;28;20061;-54
2023/06/10 08:01:15;;;;;;;15.98;6.13;;;24.30;46.70;;;;;;5002372;28;20080;-57
2023/06/10 08:03:43;;;;;;;9.02;5.45;;;24.40;46.60;;;;;;5002943;28;20061;-53
2023/06/10 08:06:11;;;;;;;11.00;5.47;;;24.40;46.70;;;;;;5003039;28;20062;-56
2023/06/10 08:08:41;;;;;;;10.55;5.53;;;24.40;46.80;;;;;;4999006;28;20410;-56
2023/06/10 08:11:09;;;;;;;10.95;5.20;;;24.50;47.00;;;;;;5000068;28;20065;-57
2023/06/10 08:13:37;;;;;;;11.88;5.78;;;24.60;47.00;;;;;;5002397;28;20053;-56
2023/06/10 08:16:05;;;;;;;8.32;5.65;;;24.70;46.60;;;;;;5001535;28;20058;-53
2023/06/10 08:18:32;;;;;;;7.50;5.50;;;24.70;46.40;;;;;;5001133;28;20065;-56
2023/06/10 08:21:00;;;;;;;7.70;5.50;;;24.80;46.10;;;;;;4999231;28;20065;-57
2023/06/10 08:23:27;;;;;;;9.82;5.65;;;24.80;46.20;;;;;;5000820;28;20438;-54
2023/06/10 08:25:54;;;;;;;9.63;5.32;;;24.90;46.20;;;;;;5001206;28;20337;-57
2023/06/10 08:28:21;;;;;;;11.77;5.97;;;25.00;46.20;;;;;;5002000;28;20612;-55
2023/06/10 08:30:50;;;;;;;11.82;5.88;;;25.00;45.80;;;;;;5001595;28;20057;-57
2023/06/10 08:33:17;;;;;;;9.80;5.90;;;25.10;45.30;;;;;;4998997;28;20064;-56
2023/06/10 08:35:45;;;;;;;8.43;5.57;;;25.20;45.90;;;;;;5003046;28;20485;-56
2023/06/10 08:38:12;;;;;;;11.77;5.78;;;25.20;45.70;;;;;;5000628;28;20058;-56
2023/06/10 08:40:39;;;;;;;9.77;5.35;;;25.30;45.30;;;;;;5002551;28;20401;-57
2023/06/10 08:43:08;;;;;;;10.27;5.75;;;25.40;45.30;;;;;;5001817;28;20175;-54
2023/06/10 08:45:37;;;;;;;7.07;5.90;;;25.40;45.10;;;;;;5001393;28;20049;-53
2023/06/10 08:48:07;;;;;;;9.90;5.00;;;25.50;45.10;;;;;;5000494;28;20061;-58
2023/06/10 08:50:36;;;;;;;6.60;4.82;;;25.60;45.20;;;;;;5002126;28;20061;-55
2023/06/10 08:53:06;;;;;;;9.07;4.88;;;25.60;45.10;;;;;;4998762;28;20057;-55
2023/06/10 08:55:34;;;;;;;7.60;5.38;;;25.70;45.00;;;;;;5001595;28;20054;-57
2023/06/10 08:58:03;;;;;;;8.57;6.03;;;25.80;45.20;;;;;;5003830;28;20050;-57
2023/06/10 09:00:32;;;;;;;11.35;5.75;;;25.80;45.40;;;;;;5001104;28;20478;-53
2023/06/10 09:03:00;;;;;;;9.02;5.75;;;25.90;45.20;;;;;;4998615;28;20061;-56
2023/06/10 09:05:30;;;;;;;6.63;5.13;;;26.00;44.90;;;;;;5001470;28;20414;-57
2023/06/10 09:07:59;;;;;;;7.93;5.63;;;26.10;44.60;;;;;;4996719;28;20054;-55
2023/06/10 09:10:27;;;;;;;7.72;5.50;;;26.10;44.40;;;;;;5003304;28;20050;-58
2023/06/10 09:12:55;;;;;;;6.53;5.22;;;26.20;44.30;;;;;;5000631;28;20061;-56
2023/06/10 09:15:22;;;;;;;8.57;4.72;;;26.20;44.10;;;;;;5000592;28;20053;-57
2023/06/10 09:17:50;;;;;;;8.30;5.25;;;26.30;44.10;;;;;;4999431;28;20061;-54
2023/06/10 09:20:18;;;;;;;6.93;5.07;;;26.30;44.10;;;;;;4996876;28;20069;-56
2023/06/10 09:22:47;;;;;;;6.47;4.85;;;26.30;44.00;;;;;;4998998;28;20050;-58
2023/06/10 09:25:15;;;;;;;6.72;5.20;;;26.40;43.80;;;;;;5002093;28;20143;-56
2023/06/10 09:27:49;;;;;;;7.05;5.40;;;26.50;43.80;;;;;;4999583;28;20057;-57
2023/06/10 09:30:27;;;;;;;7.72;4.93;;;26.50;43.60;;;;;;4998643;28;20045;-59
2023/06/10 09:32:55;;;;;;;6.80;5.00;;;26.60;43.60;;;;;;5001175;28;20061;-57
2023/06/10 09:35:23;;;;;;;5.72;4.82;;;26.60;43.40;;;;;;5000958;28;20053;-59
2023/06/10 09:37:53;;;;;;;7.75;5.15;;;26.60;43.40;;;;;;4999161;28;20436;-58
2023/06/10 09:40:21;;;;;;;6.78;5.15;;;26.70;42.90;;;;;;4995971;28;20525;-58
2023/06/10 09:42:54;;;;;;;7.40;5.00;;;26.80;43.00;;;;;;4997546;28;20061;-58
2023/06/10 09:45:22;;;;;;;6.68;5.22;;;26.80;42.90;;;;;;5000107;28;20058;-58
2023/06/10 09:47:53;;;;;;;8.75;5.25;;;26.90;42.70;;;;;;5000220;28;20058;-58
2023/06/10 09:50:20;;;;;;;7.45;5.30;;;26.90;42.50;;;;;;4996286;28;20053;-58
2023/06/10 09:52:48;;;;;;;7.68;5.20;;;27.00;42.10;;;;;;4999656;28;20604;-58
2023/06/10 09:55:18;;;;;;;8.10;4.95;;;27.10;42.20;;;;;;5001843;28;20053;-57
2023/06/10 09:57:48;;;;;;;5.32;4.57;;;27.10;42.40;;;;;;4999446;28;20058;-59
2023/06/10 10:00:16;;;;;;;6.13;4.95;;;27.20;42.30;;;;;;4997611;28;20046;-58
2023/06/10 10:02:48;;;;;;;11.18;5.15;;;27.30;42.00;;;;;;4999330;28;20062;-57
2023/06/10 10:05:17;;;;;;;6.22;5.10;;;27.30;40.80;;;;;;4999830;28;20050;-59
2023/06/10 10:07:45;;;;;;;8.32;5.38;;;27.40;41.10;;;;;;4998322;28;20061;-57
2023/06/10 10:10:14;;;;;;;8.98;5.22;;;27.40;41.00;;;;;;5000288;28;20046;-56
2023/06/10 10:12:43;;;;;;;7.95;4.88;;;27.50;40.60;;;;;;5000438;28;20391;-57
2023/06/10 10:15:12;;;;;;;7.65;5.20;;;27.50;39.90;;;;;;4998228;28;20050;-56
2023/06/10 10:17:51;;;;;;;7.63;4.85;;;27.60;39.60;;;;;;4997345;28;20057;-57
2023/06/10 10:20:23;;;;;;;6.28;4.93;;;27.60;40.80;;;;;;4993375;28;20057;-58
2023/06/10 10:22:53;;;;;;;5.93;5.15;;;27.70;40.80;;;;;;5000246;28;20408;-59
2023/06/10 10:25:25;;;;;;;10.30;5.28;;;27.80;40.50;;;;;;4999491;28;20620;-56
2023/06/10 10:27:58;;;;;;;8.38;5.35;;;27.80;38.60;;;;;;4999750;28;20421;-58
2023/06/10 10:30:26;;;;;;;8.02;4.43;;;27.90;39.40;;;;;;4994530;28;20055;-58
2023/06/10 10:32:59;;;;;;;5.25;4.40;;;28.00;39.60;;;;;;5001353;28;20054;-59
2023/06/10 10:35:26;;;;;;;6.72;4.47;;;28.00;39.70;;;;;;5004936;28;20046;-59
2023/06/10 10:37:55;;;;;;;6.43;4.65;;;28.10;40.30;;;;;;4999844;28;20957;-58
2023/06/10 10:40:24;;;;;;;10.68;4.70;;;28.10;40.50;;;;;;5004756;28;20395;-58
2023/06/10 10:42:54;;;;;;;11.88;5.35;;;28.10;40.10;;;;;;5004290;28;20058;-57
2023/06/10 10:45:23;;;;;;;6.70;4.95;;;28.10;39.60;;;;;;5001003;28;20073;-58
2023/06/10 10:47:57;;;;;;;6.32;4.82;;;28.20;39.30;;;;;;4999827;28;20068;-58
2023/06/10 10:50:24;;;;;;;7.10;4.97;;;28.20;38.90;;;;;;5002149;28;20058;-57
2023/06/10 10:52:57;;;;;;;7.22;4.30;;;28.30;39.30;;;;;;5001924;28;20058;-58
2023/06/10 10:55:25;;;;;;;13.43;4.47;;;28.30;38.00;;;;;;5005238;28;20054;-58
2023/06/10 10:57:58;;;;;;;5.97;4.10;;;28.30;38.10;;;;;;5004047;28;20065;-58
2023/06/10 11:00:30;;;;;;;6.80;4.70;;;28.30;38.00;;;;;;5001859;28;20414;-57
2023/06/10 11:03:06;;;;;;;7.22;4.70;;;28.30;37.40;;;;;;5003496;28;20050;-56
2023/06/10 11:05:38;;;;;;;8.25;4.28;;;28.30;37.10;;;;;;5000188;28;20046;-57
2023/06/10 11:08:06;;;;;;;5.50;4.22;;;28.30;36.60;;;;;;5002538;28;20057;-57
2023/06/10 11:10:34;;;;;;;6.88;4.13;;;28.40;36.70;;;;;;5001555;28;20054;-57
2023/06/10 11:13:07;;;;;;;6.10;4.40;;;28.40;36.70;;;;;;4999007;28;21360;-57
2023/06/10 11:15:40;;;;;;;5.97;4.30;;;28.40;36.10;;;;;;5002012;28;20141;-46
2023/06/10 11:18:09;;;;;;;10.15;4.30;;;28.40;35.90;;;;;;5000403;28;20064;-56
2023/06/10 11:20:59;;;;;;;8.18;4.68;;;28.40;35.50;;;;;;5001560;28;20046;-57
2023/06/10 11:23:40;;;;;;;4.80;4.00;;;28.40;35.20;;;;;;4999765;28;20084;-56
2023/06/10 11:26:35;;;;;;;4.22;3.83;;;28.40;35.00;;;;;;5002674;28;20054;-57
2023/06/10 11:29:11;;;;;;;7.38;4.13;;;28.40;35.10;;;;;;4987361;28;20045;-56
2023/06/10 11:31:50;;;;;;;5.07;4.05;;;28.50;35.50;;;;;;5003728;28;20414;-55
2023/06/10 11:34:24;;;;;;;6.30;3.80;;;28.50;35.00;;;;;;5002101;28;20500;-56
2023/06/10 11:36:52;;;;;;;;;;;28.50;34.70;;;;;;5002578;28;20058;-56
2023/06/10 11:39:21;;;;;;;4.53;3.35;;;28.60;35.60;;;;;;4999907;28;19936;-56
2023/06/10 11:41:49;;;;;;;11.32;4.43;;;28.60;35.00;;;;;;5001176;28;20999;-56
2023/06/10 11:44:18;;;;;;;15.90;4.32;;;28.70;34.60;;;;;;5001398;28;20513;-58
2023/06/10 11:46:46;;;;;;;6.03;3.75;;;28.70;34.30;;;;;;5004084;28;20058;-53
2023/06/10 11:49:13;;;;;;;7.22;4.20;;;28.70;34.50;;;;;;5003073;28;20062;-49
2023/06/10 11:51:48;;;;;;;4.05;3.63;;;28.70;34.30;;;;;;5000611;28;20058;-48
2023/06/10 11:54:17;;;;;;;4.28;3.45;;;28.70;33.80;;;;;;5002464;28;20058;-56
2023/06/10 11:56:44;;;;;;;8.32;3.92;;;28.80;34.50;;;;;;5002404;28;20065;-52
2023/06/10 11:59:11;;;;;;;7.65;3.83;;;28.80;34.10;;;;;;5003024;28;20494;-45
2023/06/10 12:01:45;;;;;;;7.50;4.25;;;28.80;33.20;;;;;;5002263;28;20165;-53
2023/06/10 12:04:15;;;;;;;7.93;4.00;;;28.90;33.00;;;;;;5002103;28;20061;-46
2023/06/10 12:06:44;;;;;;;9.43;4.65;;;28.90;32.90;;;;;;5001545;28;20488;-51
2023/06/10 12:09:20;;;;;;;5.68;3.65;;;28.90;32.10;;;;;;5000660;28;20054;-57
2023/06/10 12:11:50;;;;;;;5.68;4.10;;;28.90;32.70;;;;;;5002526;28;20486;-45
2023/06/10 12:14:51;;;;;;;8.10;3.95;;;28.90;32.60;;;;;;5000972;28;20064;-56
2023/06/10 12:17:20;;;;;;;6.78;3.72;;;29.00;32.90;;;;;;5001742;28;20425;-56
2023/06/10 12:19:49;;;;;;;5.82;3.97;;;29.00;32.90;;;;;;5002848;28;20058;-48
2023/06/10 12:22:19;;;;;;;5.72;3.65;;;29.00;32.70;;;;;;5000450;28;20057;-54
2023/06/10 12:24:57;;;;;;;5.47;3.95;;;29.10;32.80;;;;;;5002037;28;20053;-48
2023/06/10 12:27:24;;;;;;;5.93;4.10;;;29.10;32.60;;;;;;5002091;28;20046;-49
2023/06/10 12:29:54;;;;;;;6.82;3.88;;;29.10;32.40;;;;;;5001736;28;20068;-49
2023/06/10 12:32:35;;;;;;;7.28;3.65;;;29.20;32.00;;;;;;5001582;28;20057;-55
2023/06/10 12:35:06;;;;;;;4.72;3.70;;;29.20;32.40;;;;;;5002913;28;20058;-56
2023/06/10 12:37:34;;;;;;;11.90;4.03;;;29.20;32.30;;;;;;5001437;28;20052;-51
2023/06/10 12:40:02;;;;;;;13.00;3.95;;;29.30;32.40;;;;;;5002554;28;20060;-49
2023/06/10 12:42:31;;;;;;;6.43;4.25;;;29.30;32.20;;;;;;5001708;28;20735;-50
2023/06/10 12:45:00;;;;;;;5.82;3.90;;;29.40;31.70;;;;;;5002103;28;20054;-52
2023/06/10 12:47:34;;;;;;;7.78;4.20;;;29.40;31.90;;;;;;5002096;28;20050;-51
2023/06/10 12:50:03;;;;;;;13.70;3.92;;;29.40;31.60;;;;;;5002890;28;20064;-47
2023/06/10 12:52:30;;;;;;;11.52;4.75;;;29.40;31.70;;;;;;4999988;28;20049;-46
2023/06/10 12:54:58;;;;;;;4.25;3.58;;;29.40;31.90;;;;;;5001252;28;20414;-51